Sunday, January 21, 2018, 3:43 PM EST
Back to Local

KLBE, Latrobe / Westmorland

Location: Latrobe, PA, United States Lat: 40.283
Local Time: 3:43 PM EST (20:43 GMT) Lon: -79.4
Time Zone: US/Eastern Elev: 1184 ft

Show me the last for .
Show Decoded

2018-01-21 14:47 METAR KLBE 211947Z 21010KT 15SM OVC027 11/07 A3008 =
2018-01-21 13:47 METAR KLBE 211847Z 21010KT 15SM SCT028 OVC070 10/07 A3009 =
2018-01-21 12:47 METAR KLBE 211747Z 21007KT 15SM OVC030 09/08 A3012 =
2018-01-21 11:45 METAR KLBE 211645Z 23006KT 8SM OVC012 08/08 A3015 =
2018-01-21 10:50 METAR KLBE 211550Z 23008KT 7SM SCT021 OVC038 08/08 A3016 =
2018-01-21 09:50 METAR KLBE 211450Z 23010KT 5SM BR FEW012 OVC017 07/07 A3016 =
2018-01-21 08:50 METAR KLBE 211350Z 23011KT 3SM BR BKN005 OVC009 05/05 A3015 =
2018-01-21 07:50 METAR KLBE 211250Z 23008KT 2 1/2SM BR OVC004 05/05 A3015 =
2018-01-21 06:45 METAR KLBE 211145Z 24009KT 2SM BR BKN009 OVC024 04/04 A3014 =
2018-01-21 05:55 METAR KLBE 211055Z AUTO 21006KT 1 1/4SM BR OVC005 04/04 A3014 RMK AO2 =
2018-01-21 05:35 METAR KLBE 211035Z AUTO 21006KT 1 3/4SM BR OVC006 04/04 A3014 RMK AO2 =
2018-01-21 05:15 METAR KLBE 211015Z AUTO 21006KT 3SM BR OVC008 04/04 A3014 RMK AO2 =
2018-01-21 04:55 METAR KLBE 210955Z AUTO 20008KT 4SM -RA OVC008 04/04 A3014 RMK AO2 =
2018-01-21 04:35 METAR KLBE 210935Z AUTO 21009KT 10SM OVC012 05/03 A3014 RMK AO2 =
2018-01-21 04:15 METAR KLBE 210915Z AUTO 20006KT 10SM OVC012 05/02 A3014 RMK AO2 =
2018-01-21 03:55 METAR KLBE 210855Z AUTO 21006KT 10SM OVC014 04/02 A3014 RMK AO2 =
2018-01-21 03:35 METAR KLBE 210835Z AUTO 21007KT 10SM OVC016 04/02 A3014 RMK AO2 =
2018-01-21 03:15 METAR KLBE 210815Z AUTO 21008KT 10SM BKN016 OVC021 04/02 A3014 RMK AO2 =
2018-01-21 02:55 METAR KLBE 210755Z AUTO 21008KT 10SM OVC022 04/02 A3013 RMK AO2 =
2018-01-21 02:35 METAR KLBE 210735Z AUTO 18003KT 10SM OVC024 04/02 A3013 RMK AO2 =
2018-01-21 02:15 METAR KLBE 210715Z AUTO 00000KT 10SM OVC024 03/01 A3013 RMK AO2 =
2018-01-21 01:55 METAR KLBE 210655Z AUTO 21003KT 10SM OVC026 03/01 A3013 RMK AO2 =
2018-01-21 01:35 METAR KLBE 210635Z AUTO 20003KT 10SM OVC028 03/01 A3013 RMK AO2 =
2018-01-21 01:15 METAR KLBE 210615Z AUTO 20004KT 10SM BKN021 OVC026 04/00 A3013 RMK AO2 =
2018-01-21 00:55 METAR KLBE 210555Z AUTO 20005KT 10SM OVC021 04/00 A3014 RMK AO2 =
2018-01-21 00:35 METAR KLBE 210535Z AUTO 20005KT 10SM OVC021 03/00 A3014 RMK AO2 =
2018-01-21 00:15 METAR KLBE 210515Z AUTO 20004KT 10SM OVC021 03/00 A3014 RMK AO2 =
2018-01-20 23:55 METAR KLBE 210455Z AUTO 21006KT 10SM OVC023 03/00 A3013 RMK AO2 =
2018-01-20 23:35 METAR KLBE 210435Z AUTO 21006KT 10SM BKN025 02/00 A3013 RMK AO2 =
2018-01-20 23:15 METAR KLBE 210415Z AUTO 21006KT 10SM CLR 01/M01 A3012 RMK AO2 =
2018-01-20 22:55 METAR KLBE 210355Z AUTO 20007KT 10SM CLR 01/M01 A3012 RMK AO2 =
2018-01-20 22:35 METAR KLBE 210335Z AUTO 21006KT 10SM CLR 00/M02 A3011 RMK AO2 =
2018-01-20 22:15 METAR KLBE 210315Z AUTO 21006KT 10SM CLR 00/M02 A3011 RMK AO2 =
2018-01-20 21:45 METAR KLBE 210245Z 22005KT 10SM SKC 02/M02 3011 =
2018-01-20 20:45 METAR KLBE 210145Z 21004KT 10SM SKC 00/M02 A3010 =
2018-01-20 19:45 METAR KLBE 210045Z 21003KT 10SM SKC 03/M01 A3009 =
2018-01-20 18:45 METAR KLBE 202345Z 22006KT 10SM SKC 03/M01 A3009 =
2018-01-20 17:45 METAR KLBE 202245Z 23005KT 10SM SCT150 05/M01 A3007 =
2018-01-20 16:45 METAR KLBE 202145Z 25007KT 10SM BKN200 08/M01 A3004 =

Support USWX by starting your Amazon purchase here.